Latest Coastal Weather Observations for Flinders Island Airport

IDV60701

Issued at 3:02 pm EST Sunday 23 July 2017 (issued every 10 minutes, with the page automatically refreshed every 10 minutes)

About coastal observations | Map of coastal stations | Coastal observations for VIC | Marine services | Other Formats
Station Details ID: 099005 Name: FLINDERS ISLAND AIRPORT Lat: -40.09 Lon: 148.00 Height: 9.0 m
Data from the previous 72 hours. | See also: Recent months at Flinders Island Airport
Date/Time
EST
Temp
°C
Wind Pressure Rain since
9am
mm
Weather Cloud Vis
km
Sea
Height
m
Swell
Dir  Spd
kts
Gust
kts
hPa Trend Height
m
Period
s
Dir
23/03:00pm 12.2 W 22 37 1004.4 - 0.6 Rain Cloudy 6 - - - -
23/02:51pm 12.0 WNW 22 30 1004.4 - 0.4 - Partly cloudy 5 - - - -
23/02:30pm 13.2 WNW 22 35 1004.3 - 0.2 - Partly cloudy 10 - - - -
23/02:27pm 12.9 WNW 21 35 1004.2 - 0.2 - Partly cloudy 10 - - - -
23/02:00pm 12.8 W 24 32 1004.3 - 0.2 - Partly cloudy 10 - - - -
23/01:38pm 13.3 WNW 22 32 1004.2 - 0.0 - Partly cloudy 10 - - - -
23/01:30pm 13.7 WNW 25 32 1004.3 - 0.0 - Partly cloudy 10 - - - -
23/01:01pm 13.7 WNW 24 34 1004.5 - 0.0 - Partly cloudy 10 - - - -
23/01:00pm 13.5 WNW 23 30 1004.5 - 0.0 - Partly cloudy 10 - - - -
23/12:43pm 12.7 WNW 20 28 1004.8 - 0.0 - Partly cloudy 10 - - - -
23/12:30pm 10.9 W 26 39 1004.8 - 0.0 - Partly cloudy 4 - - - -
23/12:26pm 10.5 W 25 39 1004.9 - 0.0 - Partly cloudy 5 - - - -
23/12:25pm 10.6 W 24 39 1004.9 - 0.0 - Partly cloudy 5 - - - -
23/12:24pm 10.8 WNW 23 39 1005.0 - 0.0 - Partly cloudy 6 - - - -
23/12:22pm 13.2 WNW 21 37 1004.7 - 0.0 - Partly cloudy 9 - - - -
23/12:00pm 13.2 WNW 21 29 1005.1 - 0.0 - Cloudy 10 - - - -
23/11:36am 13.8 WNW 22 32 1005.5 - 0.0 - Partly cloudy 10 - - - -
23/11:30am 13.5 WNW 22 30 1005.4 - 0.0 - Partly cloudy 10 - - - -
23/11:00am 12.8 WNW 25 37 1005.7 - 0.0 - Partly cloudy 10 - - - -
23/10:41am 13.6 WNW 21 31 1005.7 - 0.0 - Partly cloudy 10 - - - -
23/10:30am 13.6 WNW 21 29 1005.9 - 0.0 - Partly cloudy 10 - - - -
23/10:00am 12.9 NW 21 34 1005.9 - 0.0 - Partly cloudy 10 - - - -
23/09:30am 13.2 WNW 22 33 1005.9 - 0.0 - Partly cloudy 10 - - - -
23/09:02am 13.1 WNW 22 32 1005.8 - 0.0 - Partly cloudy 10 - - - -
23/09:00am 13.1 WNW 23 32 1005.8 - 0.0 - Cloudy 10 - - - -
23/08:32am 13.0 WNW 21 31 1005.9 - 0.0 - Partly cloudy 10 - - - -
23/08:30am 12.9 NW 22 31 1005.9 - 0.0 - Partly cloudy 10 - - - -
23/08:00am 12.9 NW 22 32 1005.8 - 0.0 - Partly cloudy 10 - - - -
23/07:58am 12.9 WNW 22 32 1005.7 - 0.0 - Partly cloudy 10 - - - -
23/07:30am 12.9 NW 21 29 1005.7 - 0.0 - Partly cloudy 10 - - - -
23/07:10am 13.1 NW 22 32 1005.8 - 0.0 - Partly cloudy 10 - - - -
23/07:00am 13.3 NW 21 29 1005.8 - 0.0 - Cloudy 10 - - - -
23/06:30am 13.4 NW 17 22 1006.0 - 0.0 - Cloudy 10 - - - -
23/06:00am 13.3 NW 20 27 1005.9 - 0.0 - Cloudy 10 - - - -
23/05:30am 13.6 NW 19 27 1006.0 - 0.0 - Partly cloudy 10 - - - -
23/05:00am 13.5 NW 23 30 1005.9 - 0.0 - Partly cloudy 10 - - - -
23/04:49am 13.5 NW 20 32 1005.8 - 0.0 - Partly cloudy 10 - - - -
23/04:30am 13.2 NW 20 28 1005.9 - 0.0 - Partly cloudy 10 - - - -
23/04:14am 13.3 NW 22 32 1006.0 - 0.0 - Partly cloudy 10 - - - -
23/04:00am 13.2 NW 22 31 1006.2 - 0.0 - - 10 - - - -
23/03:30am 13.1 NNW 20 31 1006.5 - 0.0 - - 10 - - - -
23/03:24am 13.0 NNW 22 32 1006.4 - 0.0 - - 10 - - - -
23/03:00am 13.3 NW 21 29 1006.6 - 0.0 - - 10 - - - -
23/02:30am 13.2 NW 17 27 1007.1 - 0.0 - - 10 - - - -
23/02:00am 12.9 NW 17 27 1007.5 - 0.0 - - 10 - - - -
23/01:57am 13.0 NW 17 27 1007.6 - 0.0 - - 10 - - - -
23/01:30am 13.0 NW 19 26 1007.8 - 0.0 - - 10 - - - -
23/01:00am 12.9 NW 19 26 1008.5 - 0.0 - - 10 - - - -
23/12:30am 12.8 NW 18 24 1008.9 - 0.0 - Partly cloudy 10 - - - -
23/12:00am 12.9 NW 19 27 1009.2 - 0.0 - Mostly cloudy 10 - - - -
 
Date/Time
EST
Temp
°C
Wind Pressure Rain since
9am
mm
Weather Cloud Vis
km
Sea
Height
m
Swell
Dir  Spd
kts
Gust
kts
hPa Trend Height
m
Period
s
Dir
22/11:30pm 12.6 NW 18 23 1009.5 - 0.0 - Partly cloudy 10 - - - -
22/11:08pm 12.5 NW 15 25 1009.8 - 0.0 - Partly cloudy 10 - - - -
22/11:00pm 12.2 NW 11 16 1010.0 - 0.0 - Partly cloudy 10 - - - -
22/10:30pm 12.1 NNW 12 16 1010.3 - 0.0 - - 10 - - - -
22/10:00pm 12.3 NNW 13 18 1010.6 - 0.0 - - 10 - - - -
22/09:30pm 12.3 NNW 11 18 1010.7 - 0.0 - - 10 - - - -
22/09:00pm 12.2 NNW 10 14 1010.8 - 0.0 - - 10 - - - -
22/08:30pm 12.2 NNW 9 15 1010.9 - 0.0 - - 10 - - - -
22/08:00pm 12.2 NNW 9 16 1011.2 - 0.0 - - 10 - - - -
22/07:30pm 12.2 NNW 10 15 1011.4 - 0.0 - Partly cloudy 10 - - - -
22/07:00pm 12.4 NNW 11 16 1011.4 - 0.0 - Cloudy 10 - - - -
22/06:30pm 11.9 NNW 9 14 1011.5 - 0.0 - Cloudy 10 - - - -
22/06:00pm 11.3 NNW 7 10 1011.7 - 0.0 - Mostly cloudy 10 - - - -
22/05:30pm 11.4 NNW 8 12 1011.7 - 0.0 - Partly cloudy 10 - - - -
22/05:00pm 11.2 NNW 8 12 1011.8 - 0.0 - Partly cloudy 10 - - - -
22/04:30pm 11.4 NNW 7 11 1012.0 - 0.0 - Partly cloudy 10 - - - -
22/04:00pm 11.4 NNW 8 10 1012.3 - 0.0 - Partly cloudy 10 - - - -
22/03:30pm 11.9 NNW 8 12 1012.5 - 0.0 - Partly cloudy 10 - - - -
22/03:00pm 12.1 NW 11 16 1012.6 - 0.0 - Cloudy 10 - - - -
22/02:30pm 12.6 NW 9 13 1012.9 - 0.0 - Partly cloudy 10 - - - -
22/02:00pm 12.5 NW 15 20 1013.6 - 0.0 - Partly cloudy 10 - - - -
22/01:30pm 12.7 NW 16 20 1013.8 - 0.0 - Partly cloudy 10 - - - -
22/01:00pm 13.2 NW 16 20 1014.6 - 0.0 - - 10 - - - -
22/12:30pm 12.7 WNW 16 23 1015.3 - 0.0 - Partly cloudy 10 - - - -
22/12:00pm 12.6 NW 16 22 1016.1 - 0.0 - Mostly clear 10 - - - -
22/11:30am 12.8 NW 16 21 1016.5 - 0.0 - - 10 - - - -
22/11:00am 12.3 NW 16 22 1016.9 - 0.0 - - 10 - - - -
22/10:30am 12.1 NW 15 20 1017.4 - 0.0 - - 10 - - - -
22/10:00am 11.9 NW 15 19 1017.6 - 0.0 - - 10 - - - -
22/09:30am 11.3 WNW 15 20 1017.8 - 0.0 - - 10 - - - -
22/09:00am 10.6 WNW 15 21 1017.9 - 0.0 - - 10 - - - -
22/08:30am 10.3 WNW 14 22 1018.0 - 0.0 - - 10 - - - -
22/08:00am 10.1 WNW 14 18 1018.2 - 0.0 - - 10 - - - -
22/07:30am 9.6 WNW 14 20 1018.2 - 0.0 - - 10 - - - -
22/07:00am 9.5 WNW 16 21 1018.1 - 0.0 - - 10 - - - -
22/06:55am 9.2 WNW 15 21 1018.2 - 0.0 - - 10 - - - -
22/06:30am 8.7 NW 7 8 1018.0 - 0.0 - Partly cloudy 10 - - - -
22/06:00am 8.5 NNW 5 7 1017.9 - 0.0 - Mostly clear 10 - - - -
22/05:30am 8.4 N 6 8 1017.8 - 0.0 - Partly cloudy 10 - - - -
22/05:00am 8.4 NNW 6 8 1018.1 - 0.0 - - 10 - - - -
22/04:30am 9.1 NNW 6 8 1018.4 - 0.0 - Partly cloudy 10 - - - -
22/04:00am 8.4 N 5 7 1018.5 - 0.0 - Partly cloudy 10 - - - -
22/03:30am 7.8 NNW 5 7 1018.8 - 0.0 - Partly cloudy 10 - - - -
22/03:00am 6.6 NNW 6 9 1019.3 - 0.0 - Mostly clear 10 - - - -
22/02:30am 2.9 NNW 4 5 1019.8 - 0.0 - Partly cloudy 10 - - - -
22/02:00am 2.9 NNE 5 5 1019.9 - 0.0 - Partly cloudy 10 - - - -
22/01:30am 2.6 NNE 5 6 1020.1 - 0.0 - Partly cloudy 10 - - - -
22/01:00am 1.8 NE 5 6 1020.3 - 0.0 - Partly cloudy 10 - - - -
22/12:30am 1.8 NE 5 6 1020.8 - 0.0 - - 10 - - - -
22/12:00am 1.9 ENE 6 6 1021.2 - 0.0 - - 10 - - - -
 
Date/Time
EST
Temp
°C
Wind Pressure Rain since
9am
mm
Weather Cloud Vis
km
Sea
Height
m
Swell
Dir  Spd
kts
Gust
kts
hPa Trend Height
m
Period
s
Dir
21/11:30pm 2.0 ENE 6 7 1021.4 - 0.0 - - 10 - - - -
21/11:00pm 2.3 ENE 7 7 1021.4 - 0.0 - - 10 - - - -
21/10:30pm 2.4 NE 5 6 1021.6 - 0.0 - - 10 - - - -
21/10:00pm 2.2 ENE 5 6 1021.6 - 0.0 - - 10 - - - -
21/09:30pm 2.4 NE 6 7 1021.7 - 0.0 - - 10 - - - -
21/09:00pm 2.7 ENE 7 9 1021.6 - 0.0 - - 10 - - - -
21/08:30pm 3.1 ENE 6 7 1021.7 - 0.0 - - 10 - - - -
21/08:00pm 2.7 ENE 6 7 1021.4 - 0.0 - - 10 - - - -
21/07:30pm 3.8 ENE 7 9 1021.5 - 0.0 - - 10 - - - -
21/07:00pm 4.7 N 5 6 1021.8 - 0.0 - - 10 - - - -
21/06:30pm 8.1 WNW 8 10 1021.9 - 0.0 - - 10 - - - -
21/06:00pm 9.4 W 9 12 1021.9 - 0.0 - - 10 - - - -
21/05:30pm 9.8 W 9 13 1021.7 - 0.0 - Partly cloudy 10 - - - -
21/05:00pm 9.6 NW 4 4 1021.6 - 0.0 - Partly cloudy 10 - - - -
21/04:30pm 11.1 WNW 5 6 1021.4 - 0.0 - Partly cloudy 10 - - - -
21/04:00pm 11.7 WSW 6 7 1021.3 - 0.0 - - 10 - - - -
21/03:30pm 11.8 W 6 7 1021.3 - 0.0 - - 10 - - - -
21/03:00pm 11.9 WSW 7 8 1021.4 - 0.0 - - 10 - - - -
21/02:30pm 12.1 WSW 8 9 1021.6 - 0.0 - - 10 - - - -
21/02:00pm 12.3 WSW 8 10 1021.9 - 0.0 - - 10 - - - -
21/01:30pm 12.2 WSW 7 8 1022.0 - 0.0 - - 10 - - - -
21/01:00pm 12.1 WSW 8 10 1022.2 - 0.0 - - 10 - - - -
21/12:30pm 12.3 WSW 9 10 1022.4 - 0.0 - - 10 - - - -
21/12:00pm 12.0 WSW 8 9 1022.6 - 0.0 - - 10 - - - -
21/11:30am 11.7 WSW 5 6 1023.2 - 0.0 - - 10 - - - -
21/11:00am 11.3 W 5 6 1023.3 - 0.0 - - 10 - - - -
21/10:30am 10.9 W 4 4 1023.4 - 0.0 - - 10 - - - -
21/10:00am 11.2 CALM 0 0 1023.4 - 0.0 - - 10 - - - -
21/09:30am 8.0 ENE 5 5 1023.1 - 0.0 - - 10 - - - -
21/09:00am 5.3 ENE 6 7 1022.9 - 0.0 - - 10 - - - -
21/08:30am 2.4 ENE 6 6 1022.8 - 0.0 - - 10 - - - -
21/08:00am 1.0 ENE 6 7 1022.5 - 0.0 - - 10 - - - -
21/07:30am 0.2 ENE 6 7 1022.1 - 0.0 - - 10 - - - -
21/07:00am 0.1 ENE 6 7 1021.9 - 0.0 - - 10 - - - -
21/06:30am 0.5 ENE 6 7 1021.8 - 0.0 - - 10 - - - -
21/06:00am 0.8 ENE 5 7 1021.7 - 0.0 - - 10 - - - -
21/05:30am 1.0 ENE 6 8 1021.3 - 0.0 - - 10 - - - -
21/05:00am 0.7 E 5 8 1021.1 - 0.0 - - 10 - - - -
21/04:30am 1.2 ENE 6 8 1020.9 - 0.0 - - 10 - - - -
21/04:00am 2.0 ENE 5 6 1020.8 - 0.0 - - 10 - - - -
21/03:30am 3.8 SSW 11 14 1020.7 - 0.0 - - 10 - - - -
21/03:26am 4.6 SSW 12 15 1020.7 - 0.0 - - 10 - - - -
21/03:00am 9.6 SSW 13 16 1020.7 - 0.0 - - 10 - - - -
21/02:30am 9.0 S 10 14 1020.7 - 0.0 - Partly cloudy 10 - - - -
21/02:00am 8.4 S 10 15 1020.6 - 0.0 - - 10 - - - -
21/01:30am 9.9 SSW 10 14 1020.4 - 0.0 - Partly cloudy 10 - - - -
21/01:00am 9.4 S 8 11 1020.5 - 0.0 - Partly cloudy 10 - - - -
21/12:30am 9.5 SSE 7 11 1020.2 - 0.0 - - 10 - - - -
21/12:00am 9.8 S 9 12 1020.0 - 0.0 - Mostly clear 10 - - - -
 
Date/Time
EST
Temp
°C
Wind Pressure Rain since
9am
mm
Weather Cloud Vis
km
Sea
Height
m
Swell
Dir  Spd
kts
Gust
kts
hPa Trend Height
m
Period
s
Dir
20/11:30pm 10.0 SSW 13 17 1020.0 - 0.0 - Partly cloudy 10 - - - -
20/11:00pm 9.8 SSW 11 15 1019.8 - 0.0 - Cloudy 10 - - - -
20/10:30pm 9.4 S 6 9 1019.7 - 0.0 - Partly cloudy 10 - - - -
20/10:00pm 8.8 S 7 10 1019.6 - 0.0 - Partly cloudy 10 - - - -
20/09:30pm 9.1 S 9 15 1019.1 - 0.0 - Partly cloudy 10 - - - -
20/09:00pm 9.1 S 5 7 1018.8 - 0.0 - Partly cloudy 10 - - - -
20/08:30pm 9.6 S 7 11 1018.6 - 0.0 - Cloudy 10 - - - -
20/08:00pm 9.6 S 9 14 1018.0 - 0.0 - Partly cloudy 10 - - - -
20/07:30pm 9.4 S 9 15 1017.7 - 0.0 - - 10 - - - -
20/07:00pm 9.5 S 11 16 1017.1 - 0.0 - Partly cloudy 10 - - - -
20/06:30pm 9.8 S 12 18 1016.6 - 0.0 - Partly cloudy 10 - - - -
20/06:00pm 10.0 S 11 19 1015.9 - 0.0 - Mostly cloudy 10 - - - -
20/05:30pm 10.0 S 7 14 1015.3 - 0.0 - Partly cloudy 10 - - - -
20/05:00pm 9.7 SSW 16 25 1015.0 - 0.0 - Partly cloudy 10 - - - -
20/04:30pm 11.1 SW 18 22 1014.2 - 0.0 - Partly cloudy 10 - - - -
20/04:00pm 10.8 SW 17 20 1013.7 - 0.0 - - 10 - - - -
20/03:30pm 10.8 SSW 17 21 1013.1 - 0.0 - Partly cloudy 10 - - - -

Other Formats:

Comma delimited format used in spreadsheet applications
http://www.bom.gov.au/fwo/IDV60701/IDV60701.94980.axf

JavaScript Object Notation format (JSON) in row-major order
http://www.bom.gov.au/fwo/IDV60701/IDV60701.94980.json